createdAt,value
2019-03-12T00:00:36.431Z,51.80
2019-03-12T00:03:06.387Z,51.86
2019-03-12T00:05:36.020Z,51.88
2019-03-12T00:08:05.583Z,51.88
2019-03-12T00:10:35.260Z,51.93
2019-03-12T00:13:04.929Z,51.93
2019-03-12T00:15:34.672Z,52.07
2019-03-12T00:18:04.331Z,51.90
2019-03-12T00:20:33.979Z,52.17
2019-03-12T00:23:03.533Z,52.07
2019-03-12T00:25:33.221Z,51.57
2019-03-12T00:28:02.904Z,51.35
2019-03-12T00:30:32.520Z,51.75
2019-03-12T00:33:02.186Z,51.66
2019-03-12T00:35:31.881Z,51.56
2019-03-12T00:38:01.584Z,51.45
2019-03-12T00:40:31.614Z,51.34
2019-03-12T00:43:01.237Z,51.44
2019-03-12T00:45:30.982Z,51.44
2019-03-12T00:48:00.760Z,51.96
2019-03-12T00:50:30.445Z,51.96
2019-03-12T00:53:00.176Z,52.21
2019-03-12T00:55:29.898Z,52.47
2019-03-12T00:57:59.505Z,52.25
2019-03-12T01:00:29.264Z,52.05
2019-03-12T01:02:58.933Z,51.68
2019-03-12T01:05:28.782Z,51.68
2019-03-12T01:07:58.440Z,51.66
2019-03-12T01:10:28.096Z,51.42
2019-03-12T01:12:57.745Z,51.19
2019-03-12T01:15:27.416Z,50.88
2019-03-12T01:17:57.146Z,50.88
2019-03-12T01:20:26.940Z,51.07
2019-03-12T01:22:56.570Z,51.07
2019-03-12T01:25:26.210Z,51.61
2019-03-12T01:27:55.850Z,53.45
2019-03-12T01:30:25.429Z,53.00
2019-03-12T01:32:55.093Z,52.62
2019-03-12T01:35:24.751Z,52.89
2019-03-12T01:37:54.390Z,52.86
2019-03-12T01:40:24.220Z,52.75
2019-03-12T01:42:53.918Z,53.18
2019-03-12T01:45:23.593Z,53.26
2019-03-12T01:47:53.260Z,52.96
2019-03-12T01:50:22.896Z,52.86
2019-03-12T01:52:52.548Z,52.73
2019-03-12T01:55:22.114Z,52.68
2019-03-12T01:57:51.780Z,52.75
2019-03-12T02:00:21.258Z,53.19
2019-03-12T02:02:50.748Z,52.95
2019-03-12T02:05:20.122Z,52.81
2019-03-12T02:07:49.517Z,52.73
2019-03-12T02:10:18.894Z,52.66
2019-03-12T02:12:48.357Z,52.74
2019-03-12T02:15:17.733Z,52.86
2019-03-12T02:17:47.190Z,52.99
2019-03-12T02:20:16.880Z,53.41
2019-03-12T02:22:46.314Z,53.32
2019-03-12T02:25:16.650Z,53.32
2019-03-12T02:27:46.018Z,53.16
2019-03-12T02:30:16.696Z,53.20
2019-03-12T02:32:46.081Z,53.21
2019-03-12T02:35:15.439Z,53.13
2019-03-12T02:37:44.846Z,53.09
2019-03-12T02:40:14.939Z,53.17
2019-03-12T02:42:44.490Z,53.27
2019-03-12T02:45:13.924Z,53.36
2019-03-12T02:47:43.320Z,53.47
2019-03-12T02:50:13.002Z,53.68
2019-03-12T02:52:42.618Z,53.67
2019-03-12T02:55:12.120Z,53.71
2019-03-12T02:57:41.483Z,53.77
2019-03-12T03:00:20.583Z,53.88
2019-03-12T03:02:50.038Z,54.05
2019-03-12T03:05:19.476Z,54.09
2019-03-12T03:08:05.722Z,54.06
2019-03-12T03:10:35.118Z,54.06
2019-03-12T03:13:04.533Z,54.04
2019-03-12T03:15:39.296Z,53.99
2019-03-12T03:18:08.718Z,53.92
2019-03-12T03:20:38.074Z,53.87
2019-03-12T03:23:07.422Z,53.90
2019-03-12T03:25:36.843Z,53.97
2019-03-12T03:28:06.191Z,54.05
2019-03-12T03:30:35.572Z,54.06
2019-03-12T03:33:05.018Z,54.08
2019-03-12T03:35:34.538Z,53.92
2019-03-12T03:38:03.955Z,53.94
2019-03-12T03:40:33.392Z,53.91
2019-03-12T03:43:02.729Z,53.83
2019-03-12T03:45:32.187Z,53.68
2019-03-12T03:48:01.672Z,56.24
2019-03-12T03:50:31.064Z,59.64
2019-03-12T03:53:00.410Z,60.38
2019-03-12T03:55:29.961Z,59.21
2019-03-12T03:57:59.452Z,57.72
2019-03-12T04:00:28.912Z,56.71
2019-03-12T04:02:58.271Z,56.10
2019-03-12T04:05:27.673Z,55.39
2019-03-12T04:07:57.033Z,55.40
2019-03-12T04:10:26.448Z,55.82
2019-03-12T04:12:55.820Z,55.95
2019-03-12T04:15:25.229Z,55.86
2019-03-12T04:17:54.683Z,55.92
2019-03-12T04:20:24.079Z,56.85
2019-03-12T04:22:53.445Z,56.72
2019-03-12T04:25:22.838Z,56.60
2019-03-12T04:27:52.233Z,56.20
2019-03-12T04:30:21.691Z,55.80
2019-03-12T04:32:51.061Z,55.43
2019-03-12T04:35:20.746Z,55.14
2019-03-12T04:37:50.090Z,54.98
2019-03-12T04:40:19.544Z,54.75
2019-03-12T04:42:48.922Z,54.67
2019-03-12T04:45:18.332Z,54.49
2019-03-12T04:47:47.682Z,54.53
2019-03-12T04:50:17.077Z,54.40
2019-03-12T04:52:46.482Z,54.15
2019-03-12T04:55:15.945Z,54.00
2019-03-12T04:57:45.300Z,53.86
2019-03-12T05:00:16.377Z,53.78
2019-03-12T05:02:45.783Z,53.63
2019-03-12T05:05:15.152Z,53.72
2019-03-12T05:07:44.584Z,53.75
2019-03-12T05:10:14.188Z,56.49
2019-03-12T05:12:43.584Z,60.59
2019-03-12T05:15:13.610Z,62.36
2019-03-12T05:17:43.532Z,60.42
2019-03-12T05:20:13.919Z,60.57
2019-03-12T05:22:43.320Z,58.98
2019-03-12T05:25:13.017Z,57.75
2019-03-12T05:27:42.375Z,56.91
2019-03-12T05:30:14.328Z,56.37
2019-03-12T05:32:43.694Z,56.09
2019-03-12T05:35:13.149Z,55.53
2019-03-12T05:37:42.481Z,55.33
2019-03-12T05:40:11.932Z,55.07
2019-03-12T05:42:41.292Z,54.89
2019-03-12T05:45:11.063Z,54.81
2019-03-12T05:47:40.426Z,55.15
2019-03-12T05:50:10.790Z,56.11
2019-03-12T05:52:40.178Z,55.85
2019-03-12T05:55:09.609Z,56.05
2019-03-12T05:57:38.993Z,58.76
2019-03-12T06:00:09.708Z,58.40
2019-03-12T06:02:39.155Z,57.53
2019-03-12T06:05:08.668Z,56.80
2019-03-12T06:07:41.104Z,56.05
2019-03-12T06:10:10.687Z,55.30
2019-03-12T06:12:40.087Z,55.10
2019-03-12T06:15:09.813Z,56.06
2019-03-12T06:17:39.398Z,56.59
2019-03-12T06:20:09.253Z,56.22
2019-03-12T06:22:38.646Z,55.83
2019-03-12T06:25:08.065Z,55.20
2019-03-12T06:27:37.424Z,55.96
2019-03-12T06:30:07.686Z,55.43
2019-03-12T06:32:59.247Z,54.71
2019-03-12T06:35:41.847Z,53.49
2019-03-12T06:38:28.896Z,51.32
2019-03-12T06:41:05.884Z,49.64
2019-03-12T06:43:50.448Z,48.38
2019-03-12T06:46:32.807Z,48.13
2019-03-12T06:49:06.595Z,47.25
2019-03-12T06:51:48.603Z,46.09
2019-03-12T06:54:33.818Z,47.09
2019-03-12T06:57:20.185Z,47.40
2019-03-12T07:00:11.256Z,45.22
2019-03-12T07:02:48.174Z,43.50
2019-03-12T07:05:45.326Z,44.33
2019-03-12T07:08:32.145Z,44.33
2019-03-12T07:11:10.811Z,44.18
2019-03-12T07:14:11.264Z,44.17
2019-03-12T07:17:08.471Z,44.17
2019-03-12T07:19:59.893Z,45.44
2019-03-12T07:22:44.623Z,48.00
2019-03-12T07:25:32.010Z,47.62
2019-03-12T07:28:26.184Z,47.58
2019-03-12T07:31:03.109Z,47.58
2019-03-12T07:33:47.074Z,46.37
2019-03-12T07:36:34.012Z,46.16
2019-03-12T07:39:21.365Z,46.16
2019-03-12T07:42:05.705Z,46.20
2019-03-12T07:44:52.798Z,46.74
2019-03-12T07:47:42.183Z,47.08
2019-03-12T07:50:29.546Z,47.08
2019-03-12T07:53:17.851Z,47.43
2019-03-12T07:56:06.203Z,46.55
2019-03-12T07:58:54.311Z,42.65
2019-03-12T08:01:47.927Z,37.32
2019-03-12T08:04:51.485Z,37.32
2019-03-12T08:07:32.455Z,34.06
2019-03-12T08:10:33.951Z,33.42
2019-03-12T08:13:12.118Z,33.84
2019-03-12T08:15:57.395Z,32.86
2019-03-12T08:18:45.947Z,32.76
2019-03-12T08:21:28.870Z,33.27
2019-03-12T08:24:32.799Z,33.41
2019-03-12T08:27:21.449Z,30.86
2019-03-12T08:30:05.273Z,28.53
2019-03-12T08:32:56.809Z,28.75
2019-03-12T08:35:48.066Z,27.57
2019-03-12T08:38:32.672Z,27.72
2019-03-12T08:41:10.681Z,28.37
2019-03-12T08:43:57.898Z,29.19
2019-03-12T08:46:55.461Z,30.13
2019-03-12T08:49:48.627Z,32.35
2019-03-12T08:52:52.636Z,34.28
2019-03-12T08:55:42.621Z,37.31
2019-03-12T08:58:30.052Z,38.04
2019-03-12T09:01:19.625Z,37.72
2019-03-12T09:04:13.302Z,36.44
2019-03-12T09:07:14.240Z,36.31
2019-03-12T09:10:21.737Z,35.82
2019-03-12T09:13:02.093Z,35.65
2019-03-12T09:15:45.626Z,39.93
2019-03-12T09:18:44.011Z,38.16
2019-03-12T09:21:26.832Z,38.65
2019-03-12T09:24:15.587Z,38.02
2019-03-12T09:27:05.056Z,36.38
2019-03-12T09:29:56.179Z,33.03
2019-03-12T09:32:48.101Z,31.50
2019-03-12T09:35:49.054Z,32.44
2019-03-12T09:38:40.908Z,33.17
2019-03-12T09:41:29.435Z,32.80
2019-03-12T09:44:20.755Z,33.93
2019-03-12T09:47:15.052Z,35.12
2019-03-12T09:50:22.327Z,35.42
2019-03-12T09:53:10.869Z,36.14
2019-03-12T09:55:49.488Z,37.58
2019-03-12T09:58:30.669Z,37.22
2019-03-12T10:01:15.843Z,37.49
2019-03-12T10:03:54.773Z,37.57
2019-03-12T10:06:58.782Z,36.43
2019-03-12T10:10:02.696Z,35.72
2019-03-12T10:13:09.475Z,34.28
2019-03-12T10:16:03.981Z,33.35
2019-03-12T10:19:10.847Z,32.14
2019-03-12T10:22:02.471Z,31.76
2019-03-12T10:24:41.705Z,31.64
2019-03-12T10:27:41.009Z,31.50
2019-03-12T10:30:26.181Z,31.92
2019-03-12T10:33:14.733Z,32.99
2019-03-12T10:36:06.188Z,33.29
2019-03-12T10:39:42.528Z,33.39
2019-03-12T10:42:26.532Z,32.91
2019-03-12T10:45:06.931Z,33.73
2019-03-12T10:47:37.476Z,33.50
2019-03-12T10:50:07.205Z,33.54
2019-03-12T10:52:36.749Z,33.16
2019-03-12T10:55:12.911Z,33.55
2019-03-12T10:57:37.876Z,33.64
2019-03-12T11:00:07.824Z,33.69
2019-03-12T11:02:40.579Z,32.95
2019-03-12T11:05:08.987Z,32.51
2019-03-12T11:07:38.680Z,32.60
2019-03-12T11:10:09.368Z,32.27
2019-03-12T11:12:39.009Z,32.68
2019-03-12T11:15:09.350Z,32.39
2019-03-12T11:17:48.748Z,33.06
2019-03-12T11:20:11.967Z,32.45
2019-03-12T11:22:41.676Z,32.27
2019-03-12T11:25:11.423Z,32.44
2019-03-12T11:27:41.050Z,33.68
2019-03-12T11:30:12.986Z,33.97
2019-03-12T11:32:42.637Z,33.94
2019-03-12T11:35:12.326Z,33.70
2019-03-12T11:37:41.980Z,33.48
2019-03-12T11:40:15.016Z,32.60
2019-03-12T11:42:44.762Z,33.46
2019-03-12T11:45:18.045Z,33.46
2019-03-12T11:47:45.835Z,33.85
2019-03-12T11:50:17.969Z,33.48
2019-03-12T11:52:54.717Z,32.89
2019-03-12T11:55:19.193Z,32.27
2019-03-12T11:57:48.851Z,33.58
2019-03-12T12:00:37.578Z,32.48
2019-03-12T12:03:07.305Z,32.69
2019-03-12T12:05:36.857Z,32.54
2019-03-12T12:08:06.351Z,32.76
2019-03-12T12:10:36.089Z,32.50
2019-03-12T12:13:05.638Z,32.24
2019-03-12T12:15:35.311Z,32.19
2019-03-12T12:18:04.845Z,31.60
2019-03-12T12:20:34.404Z,30.85
2019-03-12T12:23:03.939Z,31.06
2019-03-12T12:25:33.508Z,31.54
2019-03-12T12:28:03.058Z,31.36
2019-03-12T12:30:32.700Z,31.69
2019-03-12T12:33:02.185Z,31.03
2019-03-12T12:35:31.853Z,30.89
2019-03-12T12:38:01.375Z,30.21
2019-03-12T12:40:31.078Z,30.44
2019-03-12T12:43:00.626Z,30.59
2019-03-12T12:45:30.244Z,30.88
2019-03-12T12:47:59.752Z,31.03
2019-03-12T12:50:29.693Z,30.63
2019-03-12T12:52:59.140Z,30.63
2019-03-12T12:55:28.642Z,30.69
2019-03-12T12:57:58.222Z,31.53
2019-03-12T13:00:27.867Z,31.39
2019-03-12T13:02:57.394Z,30.37
2019-03-12T13:05:26.994Z,29.72
2019-03-12T13:07:56.564Z,29.56
2019-03-12T13:10:26.385Z,29.14
2019-03-12T13:12:55.977Z,29.48
2019-03-12T13:15:25.523Z,29.10
2019-03-12T13:17:55.096Z,29.69
2019-03-12T13:20:24.608Z,30.27
2019-03-12T13:22:54.187Z,30.76
2019-03-12T13:25:23.635Z,30.71
2019-03-12T13:27:53.228Z,30.01
2019-03-12T13:30:22.950Z,29.48
2019-03-12T13:32:52.488Z,30.20
2019-03-12T13:35:22.173Z,30.30
2019-03-12T13:37:51.727Z,30.88
2019-03-12T13:40:21.354Z,31.19
2019-03-12T13:42:51.057Z,31.09
2019-03-12T13:45:20.852Z,30.78
2019-03-12T13:47:50.469Z,30.57
2019-03-12T13:50:19.962Z,31.21
2019-03-12T13:52:49.899Z,30.74
2019-03-12T13:55:19.785Z,31.38
2019-03-12T13:57:49.415Z,30.50
2019-03-12T14:00:19.932Z,29.31
2019-03-12T14:02:49.625Z,29.32
2019-03-12T14:05:19.288Z,29.30
2019-03-12T14:07:49.148Z,29.49
2019-03-12T14:10:20.402Z,28.43
2019-03-12T14:12:49.947Z,28.77
2019-03-12T14:15:38.015Z,29.12
2019-03-12T14:18:07.573Z,28.65
2019-03-12T14:20:48.282Z,28.54
2019-03-12T14:23:20.445Z,28.25
2019-03-12T14:25:49.949Z,28.88
2019-03-12T14:28:19.508Z,28.46
2019-03-12T14:30:49.105Z,27.90
2019-03-12T14:33:18.752Z,27.86
2019-03-12T14:35:52.019Z,28.67
2019-03-12T14:38:20.130Z,27.56
2019-03-12T14:40:49.644Z,26.67
2019-03-12T14:43:19.329Z,25.90
2019-03-12T14:45:49.296Z,25.96
2019-03-12T14:48:44.147Z,26.61
2019-03-12T14:51:23.617Z,27.08
2019-03-12T14:53:54.195Z,27.04
2019-03-12T14:56:23.893Z,27.23
2019-03-12T14:58:53.427Z,28.11
2019-03-12T15:01:23.098Z,27.51
2019-03-12T15:03:52.661Z,27.24
2019-03-12T15:06:22.204Z,26.99
2019-03-12T15:08:51.752Z,26.77
2019-03-12T15:11:21.322Z,26.83
2019-03-12T15:13:50.971Z,27.67
2019-03-12T15:16:20.508Z,27.68
2019-03-12T15:18:52.052Z,28.61
2019-03-12T15:21:21.393Z,28.09
2019-03-12T15:23:51.068Z,27.13
2019-03-12T15:26:20.606Z,27.20
2019-03-12T15:28:50.286Z,27.38
2019-03-12T15:31:19.840Z,26.92
2019-03-12T15:33:49.418Z,27.17
2019-03-12T15:36:18.971Z,26.67
2019-03-12T15:38:48.523Z,26.36
2019-03-12T15:41:18.097Z,26.69
2019-03-12T15:43:47.633Z,26.17
2019-03-12T15:46:17.205Z,26.33
2019-03-12T15:48:46.770Z,27.32
2019-03-12T15:51:16.405Z,26.73
2019-03-12T15:53:45.980Z,26.78
2019-03-12T15:56:15.450Z,26.88
2019-03-12T15:58:44.962Z,27.88
2019-03-12T16:01:14.530Z,27.62
2019-03-12T16:03:44.143Z,28.19
2019-03-12T16:06:13.749Z,29.39
2019-03-12T16:08:43.236Z,29.94
2019-03-12T16:11:12.894Z,29.15
2019-03-12T16:13:42.446Z,29.34
2019-03-12T16:16:12.384Z,29.28
2019-03-12T16:18:41.885Z,29.21
2019-03-12T16:21:11.534Z,29.10
2019-03-12T16:23:40.982Z,28.68
2019-03-12T16:26:10.639Z,29.17
2019-03-12T16:28:40.163Z,29.67
2019-03-12T16:31:09.866Z,30.43
2019-03-12T16:33:39.655Z,30.47
2019-03-12T16:36:09.354Z,30.70
2019-03-12T16:38:38.939Z,30.31
2019-03-12T16:41:08.467Z,30.79
2019-03-12T16:43:38.131Z,30.28
2019-03-12T16:46:07.665Z,31.03
2019-03-12T16:48:38.608Z,31.26
2019-03-12T16:51:08.322Z,30.91
2019-03-12T16:53:37.883Z,30.75
2019-03-12T16:56:07.493Z,31.29
2019-03-12T16:58:36.993Z,31.28
2019-03-12T17:01:06.497Z,31.48
2019-03-12T17:03:38.142Z,31.25
2019-03-12T17:06:07.744Z,31.11
2019-03-12T17:08:37.325Z,31.83
2019-03-12T17:11:06.980Z,31.74
2019-03-12T17:13:36.550Z,32.53
2019-03-12T17:16:06.175Z,33.36
2019-03-12T17:18:36.002Z,33.33
2019-03-12T17:21:05.527Z,33.07
2019-03-12T17:23:35.080Z,33.00
2019-03-12T17:26:04.559Z,32.47
2019-03-12T17:28:34.010Z,33.05
2019-03-12T17:31:04.140Z,32.37
2019-03-12T17:33:33.737Z,32.74
2019-03-12T17:36:03.386Z,33.57
2019-03-12T17:38:45.921Z,33.48
2019-03-12T17:41:04.425Z,33.16
2019-03-12T17:43:33.978Z,33.38
2019-03-12T17:46:03.420Z,32.97
2019-03-12T17:48:33.200Z,32.96
2019-03-12T17:51:02.778Z,32.86
2019-03-12T17:53:32.344Z,32.94
2019-03-12T17:56:01.899Z,32.59
2019-03-12T17:58:31.543Z,32.66
2019-03-12T18:01:01.228Z,33.17
2019-03-12T18:03:31.069Z,33.07
2019-03-12T18:06:00.629Z,32.94
2019-03-12T18:08:30.186Z,32.76
2019-03-12T18:11:00.006Z,32.52
2019-03-12T18:13:29.596Z,32.49
2019-03-12T18:15:59.174Z,32.87
2019-03-12T18:18:29.160Z,33.08
2019-03-12T18:20:58.768Z,34.46
2019-03-12T18:23:28.659Z,35.14
2019-03-12T18:25:59.612Z,35.59
2019-03-12T18:28:29.175Z,35.84
2019-03-12T18:30:58.771Z,35.40
2019-03-12T18:33:28.324Z,34.33
2019-03-12T18:35:58.082Z,35.10
2019-03-12T18:38:27.664Z,34.46
2019-03-12T18:40:57.289Z,33.98
2019-03-12T18:43:26.819Z,33.21
2019-03-12T18:45:57.101Z,33.25
2019-03-12T18:48:27.069Z,32.87
2019-03-12T18:50:56.700Z,32.71
2019-03-12T18:53:26.208Z,32.01
2019-03-12T18:56:02.133Z,32.01
2019-03-12T18:58:31.712Z,31.44
2019-03-12T19:01:15.897Z,31.81
2019-03-12T19:03:45.761Z,32.03
2019-03-12T19:06:16.093Z,31.44
2019-03-12T19:08:47.997Z,31.63
2019-03-12T19:11:18.194Z,33.00
2019-03-12T19:13:48.279Z,33.44
2019-03-12T19:16:17.947Z,34.21
2019-03-12T19:18:47.636Z,34.37
2019-03-12T19:21:17.363Z,34.05
2019-03-12T19:23:47.102Z,34.67
2019-03-12T19:26:16.675Z,34.27
2019-03-12T19:28:46.335Z,34.38
2019-03-12T19:31:44.497Z,34.05
2019-03-12T19:34:17.476Z,35.20
2019-03-12T19:36:47.169Z,36.60
2019-03-12T19:39:18.094Z,35.48
2019-03-12T19:41:47.878Z,34.79
2019-03-12T19:44:17.488Z,34.63
2019-03-12T19:46:47.142Z,34.35
2019-03-12T19:49:17.638Z,34.16
2019-03-12T19:51:47.265Z,34.06
2019-03-12T19:54:16.916Z,34.22
2019-03-12T19:56:46.748Z,33.65
2019-03-12T19:59:16.277Z,34.18
2019-03-12T20:01:46.377Z,34.23
2019-03-12T20:04:46.738Z,34.66
2019-03-12T20:07:07.864Z,34.88
2019-03-12T20:10:19.164Z,34.74
2019-03-12T20:13:32.806Z,34.45
2019-03-12T20:17:18.696Z,34.61
2019-03-12T20:20:44.136Z,34.66
2019-03-12T20:24:05.950Z,34.49
2019-03-12T20:26:59.829Z,34.29
2019-03-12T20:30:18.742Z,34.13
2019-03-12T20:33:25.165Z,33.35
2019-03-12T20:36:30.509Z,33.55
2019-03-12T20:39:36.165Z,33.80
2019-03-12T20:42:41.529Z,33.83
2019-03-12T20:46:01.326Z,33.81
2019-03-12T20:49:10.879Z,33.63
2019-03-12T20:52:12.087Z,33.54
2019-03-12T20:55:21.900Z,33.77
2019-03-12T20:58:34.453Z,33.58
2019-03-12T21:01:49.943Z,33.02
2019-03-12T21:05:15.864Z,33.37
2019-03-12T21:08:20.490Z,33.35
2019-03-12T21:11:35.873Z,33.53
2019-03-12T21:14:49.722Z,33.82
2019-03-12T21:17:54.858Z,32.58
2019-03-12T21:20:56.109Z,32.95
2019-03-12T21:24:10.887Z,32.51
2019-03-12T21:27:27.280Z,31.88
2019-03-12T21:29:55.047Z,31.24
2019-03-12T21:32:24.499Z,31.88
2019-03-12T21:34:54.025Z,31.69
2019-03-12T21:37:23.560Z,31.69
2019-03-12T21:39:56.045Z,31.60
2019-03-12T21:42:25.477Z,31.15
2019-03-12T21:44:55.640Z,30.80
2019-03-12T21:47:25.284Z,31.48
2019-03-12T21:49:54.851Z,31.25
2019-03-12T21:52:24.407Z,31.49
2019-03-12T21:54:53.963Z,31.16
2019-03-12T21:57:23.532Z,31.50
2019-03-12T21:59:53.189Z,31.72
2019-03-12T22:02:22.800Z,31.78
2019-03-12T22:04:52.401Z,33.51
2019-03-12T22:07:21.982Z,34.76
2019-03-12T22:09:51.708Z,35.37
2019-03-12T22:12:40.842Z,35.61
2019-03-12T22:15:11.230Z,37.20
2019-03-12T22:17:41.365Z,37.63
2019-03-12T22:20:12.491Z,38.32
2019-03-12T22:22:48.050Z,39.00
2019-03-12T22:25:17.752Z,39.55
2019-03-12T22:27:47.666Z,40.16
2019-03-12T22:30:19.838Z,40.43
2019-03-12T22:32:49.572Z,40.94
2019-03-12T22:35:19.815Z,44.10
2019-03-12T22:37:49.687Z,45.13
2019-03-12T22:40:19.349Z,50.59
2019-03-12T22:42:48.843Z,51.19
2019-03-12T22:45:18.506Z,52.34
2019-03-12T22:47:48.215Z,51.79
2019-03-12T22:50:17.770Z,52.24
2019-03-12T22:52:47.418Z,52.01
2019-03-12T22:55:16.937Z,51.37
2019-03-12T22:57:46.523Z,51.79
2019-03-12T23:00:17.490Z,52.22
2019-03-12T23:02:47.307Z,52.81
2019-03-12T23:05:16.954Z,51.95
2019-03-12T23:07:46.586Z,51.35
2019-03-12T23:10:16.731Z,51.45
2019-03-12T23:12:46.419Z,52.09
2019-03-12T23:15:16.558Z,52.06
2019-03-12T23:17:46.277Z,52.01
2019-03-12T23:20:16.108Z,52.28
2019-03-12T23:22:45.892Z,52.90
2019-03-12T23:25:15.551Z,52.22
2019-03-12T23:27:45.085Z,54.44
2019-03-12T23:30:15.032Z,55.42
2019-03-12T23:32:44.705Z,54.38
2019-03-12T23:35:14.346Z,53.62
2019-03-12T23:37:44.146Z,54.98
2019-03-12T23:40:13.901Z,53.88
2019-03-12T23:42:43.658Z,53.76
2019-03-12T23:45:13.228Z,52.68
2019-03-12T23:47:43.032Z,51.33
2019-03-12T23:50:12.908Z,51.55
2019-03-12T23:52:42.706Z,51.47
2019-03-12T23:55:12.342Z,50.79
2019-03-12T23:57:42.022Z,50.87
